Time;durP1;ratioP1;P1;durP2;ratioP2;P2;SDS_P1;SDS_P2;PMS_P1;PMS_P2;Temp;Humidity;BMP_temperature;BMP_pressure;BME280_temperature;BME280_humidity;BME280_pressure;Samples;Min_cycle;Max_cycle;Signal;HPM_P1;HPM_P2
2021/10/22 00:01:54;;;;;;;;;;;;;;;5.70;99.86;101336.31;4859335;29;19932;-53
2021/10/22 00:04:21;;;;;;;;;;;;;;;5.67;99.78;101326.00;4860098;29;20381;-49
2021/10/22 00:06:48;;;;;;;;;;;;;;;5.65;100.00;101332.19;4859251;29;19935;-51
2021/10/22 00:09:15;;;;;;;;;;;;;;;5.68;99.92;101332.06;4859350;29;19938;-46
2021/10/22 00:11:45;;;;;;;;;;;;;;;5.70;99.74;101333.69;4860632;29;20007;-52
2021/10/22 00:14:13;;;;;;;;;;;;;;;5.67;100.00;101330.34;4860218;29;20393;-53
2021/10/22 00:16:40;;;;;;;;;;;;;;;5.62;99.35;101337.47;4857700;29;19928;-49
2021/10/22 00:19:06;;;;;;;;;;;;;;;5.66;99.06;101329.50;4873746;29;19955;-50
2021/10/22 00:21:33;;;;;;;;;;;;;;;5.63;99.40;101326.16;4867967;29;20336;-45
2021/10/22 00:24:00;;;;;;;;;;;;;;;5.63;99.53;101328.75;4878709;29;19935;-44
2021/10/22 00:26:26;;;;;;;;;;;;;;;5.72;99.46;101331.03;4871485;29;19936;-45
2021/10/22 00:28:53;;;;;;;;;;;;;;;5.73;100.00;101327.53;4872821;29;20014;-51
2021/10/22 00:31:20;;;;;;;;;;;;;;;5.69;98.98;101334.59;4876571;29;19928;-51
2021/10/22 00:33:47;;;;;;;;;;;;;;;5.65;99.92;101334.78;4891659;29;19935;-49
2021/10/22 00:36:14;;;;;;;;;;;;;;;5.68;99.95;101334.66;4877155;29;19935;-53
2021/10/22 00:38:40;;;;;;;;;;;;;;;5.68;99.68;101332.88;4891159;29;19932;-52
2021/10/22 00:41:15;;;;;;;;;;;;;;;5.68;100.00;101329.44;4876754;29;19928;-49
2021/10/22 00:43:41;;;;;;;;;;;;;;;5.72;99.93;101325.81;4875010;29;19940;-54
2021/10/22 00:46:08;;;;;;;;;;;;;;;5.64;99.80;101325.25;4876330;29;19931;-52
2021/10/22 00:48:38;;;;;;;;;;;;;;;5.66;100.00;101320.81;4875432;29;20030;-51
2021/10/22 00:51:06;;;;;;;;;;;;;;;5.67;100.00;101319.91;4876454;29;19928;-52
2021/10/22 00:53:34;;;;;;;;;;;;;;;5.64;99.99;101320.88;4878610;29;19927;-54
2021/10/22 00:56:00;;;;;;;;;;;;;;;5.68;100.00;101319.00;4862104;29;21014;-54
2021/10/22 00:58:27;;;;;;;;;;;;;;;5.66;100.00;101323.41;4859241;29;19942;-53
2021/10/22 01:00:54;;;;;;;;;;;;;;;5.58;100.00;101319.34;4874127;29;19991;-53
2021/10/22 01:03:21;;;;;;;;;;;;;;;5.59;99.71;101333.25;4876681;29;19935;-52
2021/10/22 01:05:48;;;;;;;;;;;;;;;5.55;99.58;101322.06;4875695;29;19955;-54
2021/10/22 01:08:15;;;;;;;;;;;;;;;5.58;100.00;101313.28;4876477;29;20276;-52
2021/10/22 01:10:42;;;;;;;;;;;;;;;5.53;100.00;101323.03;4859901;29;19939;-53
2021/10/22 01:13:08;;;;;;;;;;;;;;;5.51;100.00;101325.69;4877725;29;20495;-53
2021/10/22 01:15:35;;;;;;;;;;;;;;;5.56;99.91;101318.56;4878809;29;19932;-51
2021/10/22 01:18:02;;;;;;;;;;;;;;;5.51;99.74;101314.41;4883852;29;20295;-51
2021/10/22 01:20:29;;;;;;;;;;;;;;;5.49;99.84;101314.44;4877990;29;20321;-52
2021/10/22 01:22:55;;;;;;;;;;;;;;;5.50;99.25;101308.31;4876563;29;19927;-51
2021/10/22 01:25:24;;;;;;;;;;;;;;;5.47;99.78;101311.06;4876026;29;20329;-51
2021/10/22 01:27:50;;;;;;;;;;;;;;;5.39;99.76;101308.72;4856445;29;19928;-50
2021/10/22 01:30:18;;;;;;;;;;;;;;;5.39;99.89;101303.50;4885740;29;20392;-53
2021/10/22 01:32:49;;;;;;;;;;;;;;;5.41;99.16;101298.22;4887151;29;20393;-52
2021/10/22 01:35:16;;;;;;;;;;;;;;;5.35;99.07;101309.72;4857799;29;19928;-52
2021/10/22 01:37:42;;;;;;;;;;;;;;;5.37;99.21;101301.84;4858786;29;19928;-50
2021/10/22 01:40:09;;;;;;;;;;;;;;;5.32;99.24;101295.97;4860212;29;19996;-53
2021/10/22 01:42:36;;;;;;;;;;;;;;;5.28;98.87;101294.38;4887667;29;19932;-46
2021/10/22 01:45:04;;;;;;;;;;;;;;;5.25;98.21;101288.34;4870508;29;20312;-49
2021/10/22 01:47:31;;;;;;;;;;;;;;;5.28;98.87;101299.59;4890003;29;19940;-45
2021/10/22 01:49:57;;;;;;;;;;;;;;;5.29;98.97;101302.16;4859179;29;19932;-49
2021/10/22 01:52:24;;;;;;;;;;;;;;;5.26;98.34;101297.00;4857671;29;19932;-46
2021/10/22 01:54:51;;;;;;;;;;;;;;;5.29;97.87;101301.28;4888441;29;20427;-47
2021/10/22 01:57:17;;;;;;;;;;;;;;;5.26;98.34;101307.44;4857227;29;19997;-45
2021/10/22 01:59:46;;;;;;;;;;;;;;;5.27;98.17;101301.34;4855709;29;19945;-46
2021/10/22 02:02:13;;;;;;;;;;;;;;;5.21;97.37;101299.78;4859703;29;19928;-45
2021/10/22 02:04:40;;;;;;;;;;;;;;;5.21;97.16;101299.78;4856540;29;19929;-47
2021/10/22 02:07:07;;;;;;;;;;;;;;;5.22;97.13;101305.84;4871824;29;19939;-45
2021/10/22 02:09:34;;;;;;;;;;;;;;;5.17;97.12;101306.03;4857072;29;19932;-45
2021/10/22 02:12:00;;;;;;;;;;;;;;;5.18;96.69;101307.75;4857600;29;19939;-50
2021/10/22 02:14:28;;;;;;;;;;;;;;;5.16;96.59;101306.09;4860533;29;19988;-51
2021/10/22 02:16:54;;;;;;;;;;;;;;;5.14;97.14;101298.31;4856301;29;19928;-49
2021/10/22 02:19:21;;;;;;;;;;;;;;;5.16;96.72;101296.50;4857285;29;20355;-52
2021/10/22 02:21:48;;;;;;;;;;;;;;;5.11;96.88;101297.56;4864538;29;19978;-52
2021/10/22 02:24:14;;;;;;;;;;;;;;;5.12;96.34;101297.50;4862134;29;20333;-53
2021/10/22 02:26:41;;;;;;;;;;;;;;;5.09;96.72;101287.19;4875432;29;19928;-53
2021/10/22 02:29:07;;;;;;;;;;;;;;;5.10;96.38;101296.72;4875477;29;19960;-53
2021/10/22 02:31:34;;;;;;;;;;;;;;;5.05;96.10;101286.44;4878575;29;19935;-49
2021/10/22 02:34:01;;;;;;;;;;;;;;;5.06;97.21;101282.09;4877429;29;19940;-44
2021/10/22 02:36:27;;;;;;;;;;;;;;;5.01;96.48;101286.59;4874699;29;19984;-46
2021/10/22 02:38:54;;;;;;;;;;;;;;;4.98;96.92;101284.97;4875821;29;19927;-46
2021/10/22 02:41:21;;;;;;;;;;;;;;;4.97;96.73;101277.19;4878167;29;19958;-45
2021/10/22 02:43:48;;;;;;;;;;;;;;;5.00;96.59;101264.03;4881557;29;20410;-51
2021/10/22 02:46:15;;;;;;;;;;;;;;;4.94;96.49;101265.13;4873950;29;19928;-52
2021/10/22 02:48:42;;;;;;;;;;;;;;;4.94;96.81;101266.88;4877071;29;19928;-51
2021/10/22 02:51:09;;;;;;;;;;;;;;;4.92;96.42;101253.88;4863078;29;20411;-49
2021/10/22 02:53:36;;;;;;;;;;;;;;;4.91;96.67;101255.66;4865131;29;19935;-54
2021/10/22 02:56:03;;;;;;;;;;;;;;;4.91;97.00;101253.03;4864871;29;19980;-47
2021/10/22 02:58:29;;;;;;;;;;;;;;;4.93;97.09;101266.00;4876941;29;19935;-51
2021/10/22 03:00:56;;;;;;;;;;;;;;;4.91;97.19;101268.69;4863087;29;20010;-44
2021/10/22 03:03:23;;;;;;;;;;;;;;;4.88;97.03;101265.31;4878984;29;19932;-52
2021/10/22 03:05:50;;;;;;;;;;;;;;;4.88;96.65;101262.72;4863987;29;19928;-53
2021/10/22 03:08:16;;;;;;;;;;;;;;;4.85;96.84;101258.47;4881048;29;19935;-52
2021/10/22 03:10:43;;;;;;;;;;;;;;;4.84;97.22;101251.56;4878016;29;19932;-50
2021/10/22 03:13:10;;;;;;;;;;;;;;;4.85;97.35;101255.00;4877393;29;19928;-49
2021/10/22 03:15:36;;;;;;;;;;;;;;;4.86;97.42;101254.09;4881259;29;19927;-53
2021/10/22 03:18:03;;;;;;;;;;;;;;;4.80;97.04;101252.56;4879313;29;19927;-52
2021/10/22 03:20:31;;;;;;;;;;;;;;;4.80;97.46;101265.59;4893130;29;19983;-48
2021/10/22 03:22:57;;;;;;;;;;;;;;;4.80;96.99;101263.00;4899390;29;19931;-49
2021/10/22 03:25:24;;;;;;;;;;;;;;;4.78;96.91;101272.59;4880324;29;19927;-51
2021/10/22 03:27:52;;;;;;;;;;;;;;;4.81;96.64;101256.84;4872929;29;19927;-54
2021/10/22 03:30:19;;;;;;;;;;;;;;;4.78;97.53;101263.94;4875788;29;19973;-51
2021/10/22 03:32:45;;;;;;;;;;;;;;;4.76;96.42;101253.59;4861756;29;19934;-45
2021/10/22 03:35:12;;;;;;;;;;;;;;;4.74;97.01;101257.97;4878827;29;19980;-45
2021/10/22 03:37:39;;;;;;;;;;;;;;;4.70;97.76;101256.38;4881022;29;19943;-46
2021/10/22 03:40:05;;;;;;;;;;;;;;;4.74;96.32;101245.81;4878148;29;20000;-44
2021/10/22 03:42:32;;;;;;;;;;;;;;;4.74;96.86;101247.56;4877805;29;19951;-44
2021/10/22 03:44:59;;;;;;;;;;;;;;;4.77;96.77;101236.19;4859995;29;19931;-44
2021/10/22 03:47:25;;;;;;;;;;;;;;;4.76;96.40;101239.69;4878007;29;19932;-44
2021/10/22 03:49:52;;;;;;;;;;;;;;;4.75;96.13;101225.81;4861694;29;19927;-45
2021/10/22 03:52:19;;;;;;;;;;;;;;;4.73;96.23;101222.38;4878633;29;19927;-43
2021/10/22 03:54:45;;;;;;;;;;;;;;;4.65;97.04;101221.81;4848657;29;19928;-51
2021/10/22 03:57:12;;;;;;;;;;;;;;;4.64;97.27;101220.97;4890756;29;19931;-44
2021/10/22 03:59:39;;;;;;;;;;;;;;;4.63;96.77;101218.41;4895936;29;19927;-45
2021/10/22 04:02:05;;;;;;;;;;;;;;;4.64;97.05;101222.72;4897668;29;19980;-48
2021/10/22 04:04:34;;;;;;;;;;;;;;;4.63;97.13;101226.22;4891398;29;21141;-52
2021/10/22 04:07:02;;;;;;;;;;;;;;;4.66;97.49;101231.34;4878446;29;20328;-49
2021/10/22 04:09:31;;;;;;;;;;;;;;;4.65;97.58;101229.63;4879737;29;19932;-45
2021/10/22 04:11:58;;;;;;;;;;;;;;;4.67;97.04;101241.69;4883675;29;19932;-45
2021/10/22 04:14:25;;;;;;;;;;;;;;;4.69;97.17;101241.63;4877063;29;19932;-43
2021/10/22 04:16:51;;;;;;;;;;;;;;;4.70;96.44;101240.75;4876754;29;19928;-45
2021/10/22 04:19:18;;;;;;;;;;;;;;;4.71;96.72;101247.66;4877819;29;20027;-44
2021/10/22 04:21:45;;;;;;;;;;;;;;;4.73;97.24;101251.94;4863765;29;19935;-47
2021/10/22 04:24:12;;;;;;;;;;;;;;;4.78;97.46;101262.19;4880128;29;20415;-43
2021/10/22 04:26:38;;;;;;;;;;;;;;;4.80;97.09;101269.94;4863676;29;19936;-44
2021/10/22 04:29:05;;;;;;;;;;;;;;;4.80;98.25;101263.00;4879775;29;19932;-44
2021/10/22 04:31:31;;;;;;;;;;;;;;;4.76;97.30;101269.22;4863299;29;19935;-43
2021/10/22 04:33:58;;;;;;;;;;;;;;;4.81;97.18;101264.66;4877578;29;20631;-43
2021/10/22 04:36:25;;;;;;;;;;;;;;;4.83;97.27;101257.66;4877477;29;19932;-45
2021/10/22 04:41:37;;;;;;;;;;;;;;;4.94;96.85;101259.06;4879956;29;19927;-49
2021/10/22 04:44:03;;;;;;;;;;;;;;;4.97;96.58;101267.59;4877962;29;19975;-52
2021/10/22 04:46:30;;;;;;;;;;;;;;;5.03;95.91;101256.97;4879406;29;19934;-49
2021/10/22 04:48:57;;;;;;;;;;;;;;;5.06;96.33;101263.84;4863302;29;20446;-50
2021/10/22 04:51:23;;;;;;;;;;;;;;;5.10;97.47;101272.38;4879755;29;20287;-50
2021/10/22 04:53:50;;;;;;;;;;;;;;;5.12;97.30;101263.59;4879538;29;19928;-49
2021/10/22 04:56:16;;;;;;;;;;;;;;;5.16;96.94;101259.16;4878330;29;19934;-52
2021/10/22 04:58:45;;;;;;;;;;;;;;;5.14;96.57;101263.56;4879172;29;19928;-52
2021/10/22 05:01:13;;;;;;;;;;;;;;;5.20;97.08;101261.56;4879447;29;19927;-50
2021/10/22 05:03:40;;;;;;;;;;;;;;;5.24;96.75;101260.56;4878176;29;20319;-51
2021/10/22 05:06:07;;;;;;;;;;;;;;;5.22;97.13;101272.81;4877980;29;19935;-48
2021/10/22 05:08:33;;;;;;;;;;;;;;;5.25;96.74;101266.66;4877266;29;20502;-52
2021/10/22 05:11:01;;;;;;;;;;;;;;;5.21;98.12;101272.88;4876541;29;19927;-49
2021/10/22 05:13:28;;;;;;;;;;;;;;;5.31;99.25;101265.56;4873841;29;19932;-49
2021/10/22 05:15:54;;;;;;;;;;;;;;;5.33;99.84;101268.97;4878417;29;19975;-51
2021/10/22 05:18:21;;;;;;;;;;;;;;;5.38;99.42;101267.03;4859521;29;19935;-49
2021/10/22 05:20:48;;;;;;;;;;;;;;;5.44;99.53;101273.78;4876864;29;20453;-49
2021/10/22 05:23:16;;;;;;;;;;;;;;;5.40;100.00;101270.47;4876278;29;19959;-48
2021/10/22 05:25:42;;;;;;;;;;;;;;;5.41;100.00;101261.69;4862119;29;19928;-52
2021/10/22 05:28:09;;;;;;;;;;;;;;;5.46;100.00;101267.59;4877485;29;19932;-51
2021/10/22 05:30:36;;;;;;;;;;;;;;;5.46;100.00;101254.56;4875215;29;19928;-50
2021/10/22 05:33:09;;;;;;;;;;;;;;;5.54;100.00;101244.69;4875367;29;19927;-52
2021/10/22 05:35:36;;;;;;;;;;;;;;;5.51;100.00;101237.00;4878116;29;20376;-52
2021/10/22 05:38:04;;;;;;;;;;;;;;;5.53;100.00;101237.75;4878967;29;19931;-50
2021/10/22 05:40:32;;;;;;;;;;;;;;;5.56;100.00;101235.06;4876599;29;19939;-48
2021/10/22 05:42:58;;;;;;;;;;;;;;;5.53;100.00;101229.94;4875954;29;19932;-52
2021/10/22 05:45:26;;;;;;;;;;;;;;;5.57;100.00;101225.47;4873784;29;20411;-48
2021/10/22 05:47:58;;;;;;;;;;;;;;;5.49;100.00;101224.91;4876615;29;19956;-50
2021/10/22 05:50:25;;;;;;;;;;;;;;;5.44;100.00;101212.03;4876567;29;19927;-49
2021/10/22 05:52:52;;;;;;;;;;;;;;;5.48;100.00;101197.97;4859775;29;20463;-54
2021/10/22 05:55:18;;;;;;;;;;;;;;;5.37;100.00;101198.38;4876167;29;19927;-53
2021/10/22 05:57:45;;;;;;;;;;;;;;;5.37;100.00;101202.72;4876174;29;19927;-53
2021/10/22 06:00:12;;;;;;;;;;;;;;;5.37;100.00;101200.13;4875402;29;19928;-52
2021/10/22 06:02:40;;;;;;;;;;;;;;;5.38;100.00;101204.44;4861761;29;19931;-50
2021/10/22 06:05:07;;;;;;;;;;;;;;;5.37;100.00;101201.00;4862303;29;19928;-50
2021/10/22 06:07:34;;;;;;;;;;;;;;;5.33;100.00;101204.63;4874824;29;20384;-50
2021/10/22 06:10:01;;;;;;;;;;;;;;;5.38;100.00;101200.06;4876493;29;19928;-52
2021/10/22 06:12:27;;;;;;;;;;;;;;;5.48;100.00;101189.28;4861093;29;19928;-52
2021/10/22 06:14:54;;;;;;;;;;;;;;;5.50;100.00;101193.53;4874155;29;19935;-53
2021/10/22 06:17:21;;;;;;;;;;;;;;;5.49;100.00;101204.03;4877423;29;20333;-53
2021/10/22 06:19:47;;;;;;;;;;;;;;;5.49;100.00;101194.44;4885691;29;19935;-50
2021/10/22 06:23:53;;;;;;;;;;;;;;;5.58;100.00;101191.47;4894653;29;19928;-51
2021/10/22 06:25:04;;;;;;;;;;;;;;;5.62;100.00;101207.88;4888106;29;19928;-53
2021/10/22 06:27:31;;;;;;;;;;;;;;;5.64;100.00;101199.97;4897907;29;20968;-51
2021/10/22 06:29:57;;;;;;;;;;;;;;;5.64;100.00;101210.41;4898938;29;19928;-48
2021/10/22 06:32:24;;;;;;;;;;;;;;;5.66;100.00;101208.59;4868371;29;19934;-48
2021/10/22 06:34:51;;;;;;;;;;;;;;;5.67;100.00;101225.94;4900331;29;19931;-47
2021/10/22 06:37:18;;;;;;;;;;;;;;;5.70;100.00;101231.03;4880933;29;19928;-52
2021/10/22 06:39:45;;;;;;;;;;;;;;;5.75;100.00;101227.38;4881612;29;20031;-49
2021/10/22 06:42:11;;;;;;;;;;;;;;;5.80;100.00;101224.56;4897953;29;20319;-48
2021/10/22 06:44:38;;;;;;;;;;;;;;;5.79;100.00;101229.84;4896782;29;19931;-46
2021/10/22 06:47:05;;;;;;;;;;;;;;;5.86;100.00;101226.09;4899847;29;20353;-47
2021/10/22 06:49:32;;;;;;;;;;;;;;;5.89;100.00;101219.00;4881290;29;19932;-46
2021/10/22 06:51:58;;;;;;;;;;;;;;;5.87;100.00;101228.63;4898501;29;20018;-46
2021/10/22 06:54:25;;;;;;;;;;;;;;;5.89;100.00;101239.00;4900506;29;20043;-44
2021/10/22 06:56:52;;;;;;;;;;;;;;;5.89;100.00;101239.88;4900073;29;20376;-45
2021/10/22 06:59:18;;;;;;;;;;;;;;;5.93;100.00;101244.06;4900526;29;19976;-51
2021/10/22 07:01:45;;;;;;;;;;;;;;;6.01;100.00;101249.03;4900328;29;19931;-49
2021/10/22 07:04:13;;;;;;;;;;;;;;;6.03;100.00;101246.34;4897861;29;19984;-46
2021/10/22 07:09:25;;;;;;;;;;;;;;;6.00;100.00;101230.78;4897382;29;20347;-46
2021/10/22 07:11:52;;;;;;;;;;;;;;;6.08;100.00;101237.44;4897070;29;20025;-44
2021/10/22 07:14:18;;;;;;;;;;;;;;;6.12;100.00;101238.13;4896529;29;20283;-49
2021/10/22 07:16:45;;;;;;;;;;;;;;;6.21;100.00;101237.78;4879701;29;19927;-45
2021/10/22 07:19:12;;;;;;;;;;;;;;;6.17;100.00;101233.59;4897147;29;19927;-45
2021/10/22 07:21:47;;;;;;;;;;;;;;;6.17;100.00;101238.81;4900226;29;19927;-49
2021/10/22 07:24:22;;;;;;;;;;;;;;;6.16;100.00;101239.75;4900077;29;20391;-49
2021/10/22 07:26:49;;;;;;;;;;;;;;;6.23;100.00;101237.69;4884257;29;19927;-53
2021/10/22 07:29:17;;;;;;;;;;;;;;;6.32;100.00;101234.72;4883166;29;20307;-50
2021/10/22 07:31:45;;;;;;;;;;;;;;;6.32;100.00;101244.34;4899906;29;19983;-48
2021/10/22 07:34:16;;;;;;;;;;;;;;;6.32;100.00;101249.56;4866614;29;20036;-51
2021/10/22 07:36:45;;;;;;;;;;;;;;;6.46;100.00;101238.53;4896222;29;19927;-49
2021/10/22 07:39:12;;;;;;;;;;;;;;;6.59;100.00;101242.34;4864790;29;19935;-49
2021/10/22 07:41:58;;;;;;;;;;;;;;;6.95;99.23;101233.81;4897376;29;19928;-50
2021/10/22 07:44:45;;;;;;;;;;;;;;;6.98;99.11;101248.53;4883612;29;19979;-50
2021/10/22 07:47:12;;;;;;;;;;;;;;;6.95;98.38;101246.88;4893015;29;19962;-50
2021/10/22 07:49:38;;;;;;;;;;;;;;;7.03;98.94;101252.63;4895950;29;19931;-52
2021/10/22 07:52:05;;;;;;;;;;;;;;;7.03;98.96;101251.78;4898220;29;19934;-51
2021/10/22 07:54:32;;;;;;;;;;;;;;;7.00;98.24;101257.16;4898327;29;19927;-45
2021/10/22 07:56:59;;;;;;;;;;;;;;;7.05;99.32;101260.44;4896412;29;20396;-46
2021/10/22 07:59:26;;;;;;;;;;;;;;;7.04;99.22;101263.97;4891623;29;19935;-45
2021/10/22 08:02:06;;;;;;;;;;;;;;;7.06;98.81;101259.50;4898741;29;19935;-46
2021/10/22 08:04:33;;;;;;;;;;;;;;;7.09;99.29;101255.00;4882637;29;19928;-46
2021/10/22 08:07:00;;;;;;;;;;;;;;;7.16;98.73;101258.19;4899214;29;19934;-49
2021/10/22 08:09:26;;;;;;;;;;;;;;;7.25;98.29;101262.16;4899144;29;20401;-46
2021/10/22 08:11:53;;;;;;;;;;;;;;;7.35;97.73;101255.59;4898951;29;19983;-51
2021/10/22 08:14:20;;;;;;;;;;;;;;;7.51;98.34;101262.75;4882483;29;19927;-52
2021/10/22 08:16:47;;;;;;;;;;;;;;;7.50;97.09;101253.19;4898220;29;19935;-52
2021/10/22 08:19:14;;;;;;;;;;;;;;;7.61;97.21;101253.56;4866314;29;20284;-54
2021/10/22 08:24:12;;;;;;;;;;;;;;;7.61;96.30;101249.19;4897195;29;20018;-54
2021/10/22 08:26:38;;;;;;;;;;;;;;;7.60;96.41;101239.63;4894834;29;19935;-54
2021/10/22 08:29:21;;;;;;;;;;;;;;;7.75;94.93;101263.41;4894738;29;20430;-53
2021/10/22 08:31:48;;;;;;;;;;;;;;;7.73;95.69;101255.63;4881967;29;20335;-53
2021/10/22 08:34:15;;;;;;;;;;;;;;;7.72;95.00;101255.69;4898884;29;19927;-54
2021/10/22 08:36:41;;;;;;;;;;;;;;;7.83;94.64;101253.41;4898640;29;19932;-51
2021/10/22 08:39:08;;;;;;;;;;;;;;;7.91;94.98;101256.53;4896255;29;20340;-50
2021/10/22 08:41:35;;;;;;;;;;;;;;;8.21;93.12;101242.88;4893507;29;20003;-54
2021/10/22 08:44:03;;;;;;;;;;;;;;;8.53;93.45;101248.31;4881848;29;19931;-54
2021/10/22 08:46:31;;;;;;;;;;;;;;;8.89;92.49;101254.38;4880445;29;19939;-55
2021/10/22 08:48:58;;;;;;;;;;;;;;;9.02;90.45;101259.88;4893273;29;19983;-55
2021/10/22 08:51:26;;;;;;;;;;;;;;;8.92;91.07;101255.09;4880319;29;19928;-49
2021/10/22 08:53:52;;;;;;;;;;;;;;;8.96;90.31;101255.78;4895837;29;20026;-46
2021/10/22 08:56:20;;;;;;;;;;;;;;;8.91;91.30;101258.63;4894428;29;19927;-45
2021/10/22 08:58:47;;;;;;;;;;;;;;;8.83;91.04;101260.81;4881213;29;19931;-46
2021/10/22 09:01:13;;;;;;;;;;;;;;;8.90;89.51;101256.09;4896586;29;19931;-48
2021/10/22 09:03:40;;;;;;;;;;;;;;;8.93;90.63;101255.91;4894153;29;19967;-46
2021/10/22 09:06:12;;;;;;;;;;;;;;;8.92;89.58;101255.09;4896893;29;19988;-48
2021/10/22 09:08:40;;;;;;;;;;;;;;;8.92;89.79;101249.00;4897985;29;19975;-47
2021/10/22 09:11:29;;;;;;;;;;;;;;;8.98;89.47;101247.84;4898144;29;19934;-45
2021/10/22 09:14:14;;;;;;;;;;;;;;;9.14;89.21;101257.44;4896613;29;19931;-44
2021/10/22 09:16:41;;;;;;;;;;;;;;;9.30;89.15;101265.34;4895281;29;19936;-45
2021/10/22 09:19:08;;;;;;;;;;;;;;;9.23;87.88;101257.88;4894870;29;19978;-46
2021/10/22 09:21:35;;;;;;;;;;;;;;;9.33;87.72;101258.25;4880770;29;19931;-46
2021/10/22 09:24:18;;;;;;;;;;;;;;;9.33;87.77;101259.09;4897830;29;20339;-46
2021/10/22 09:26:52;;;;;;;;;;;;;;;9.53;87.86;101259.78;4897741;29;19928;-46
2021/10/22 09:29:23;;;;;;;;;;;;;;;9.57;86.90;101256.94;4897544;29;19935;-50
2021/10/22 09:31:50;;;;;;;;;;;;;;;9.52;86.81;101260.75;4893586;29;19960;-46
2021/10/22 09:34:31;;;;;;;;;;;;;;;9.48;86.98;101262.69;4894738;29;19938;-46
2021/10/22 09:36:58;;;;;;;;;;;;;;;9.53;86.84;101273.78;4878158;29;19939;-48
2021/10/22 09:39:25;;;;;;;;;;;;;;;9.60;86.63;101269.06;4894160;29;20355;-45
2021/10/22 09:41:56;;;;;;;;;;;;;;;9.53;87.97;101278.16;4894062;29;20046;-44
2021/10/22 09:44:24;;;;;;;;;;;;;;;9.57;87.45;101272.69;4894004;29;19931;-46
2021/10/22 09:46:51;;;;;;;;;;;;;;;9.64;89.21;101274.03;4876677;29;19931;-46
2021/10/22 09:49:25;;;;;;;;;;;;;;;9.58;88.51;101284.03;4879062;29;19974;-50
2021/10/22 09:51:54;;;;;;;;;;;;;;;9.62;90.31;101281.16;4893902;29;19974;-46
2021/10/22 09:54:27;;;;;;;;;;;;;;;9.58;91.18;101278.78;4893569;29;19983;-47
2021/10/22 09:56:56;;;;;;;;;;;;;;;9.55;90.99;101285.03;4894144;29;19932;-48
2021/10/22 09:59:24;;;;;;;;;;;;;;;9.62;88.34;101285.56;4894042;29;19983;-46
2021/10/22 10:01:54;;;;;;;;;;;;;;;9.57;90.67;101288.44;4898240;29;19931;-48
2021/10/22 10:04:22;;;;;;;;;;;;;;;9.54;90.55;101293.84;4885308;29;20014;-47
2021/10/22 10:07:00;;;;;;;;;;;;;;;9.48;90.01;101297.66;4901231;29;19987;-49
2021/10/22 10:09:27;;;;;;;;;;;;;;;9.57;91.47;101305.97;4897074;29;19938;-48
2021/10/22 10:11:55;;;;;;;;;;;;;;;9.49;92.45;101295.88;4898734;29;19934;-47
2021/10/22 10:14:25;;;;;;;;;;;;;;;9.49;93.14;101301.13;4884590;29;19931;-49
2021/10/22 10:16:52;;;;;;;;;;;;;;;9.49;94.25;101301.13;4901069;29;19927;-54
2021/10/22 10:19:19;;;;;;;;;;;;;;;9.40;93.17;101306.88;4884298;29;20330;-51
2021/10/22 10:21:50;;;;;;;;;;;;;;;9.41;94.82;101309.41;4900836;29;19927;-53
2021/10/22 10:24:18;;;;;;;;;;;;;;;9.38;93.09;101313.97;4881424;29;20045;-47
2021/10/22 10:26:44;;;;;;;;;;;;;;;9.34;95.93;101320.31;4864975;29;19953;-49
2021/10/22 10:29:26;;;;;;;;;;;;;;;9.34;96.22;101333.44;4896850;29;19931;-46
2021/10/22 10:32:01;;;;;;;;;;;;;;;9.16;94.65;101338.69;4896553;29;19935;-46
2021/10/22 10:34:27;;;;;;;;;;;;;;;9.17;98.33;101340.41;4896383;29;19981;-52
2021/10/22 10:36:55;;;;;;;;;;;;;;;9.16;98.62;101350.97;4897824;29;19976;-50
2021/10/22 10:39:41;;;;;;;;;;;;;;;9.15;99.46;101355.41;4881539;29;19997;-54
2021/10/22 10:42:20;;;;;;;;;;;;;;;9.04;99.55;101345.44;4900729;29;19938;-51
2021/10/22 10:44:51;;;;;;;;;;;;;;;9.12;99.80;101337.16;4878991;29;19931;-54
2021/10/22 10:47:27;;;;;;;;;;;;;;;9.27;99.05;101349.50;4896035;29;19934;-51
2021/10/22 10:49:59;;;;;;;;;;;;;;;9.36;100.00;101348.19;4880888;29;19934;-52
2021/10/22 10:52:39;;;;;;;;;;;;;;;9.33;99.24;101345.72;4880817;29;19950;-51
2021/10/22 10:55:21;;;;;;;;;;;;;;;9.39;99.45;101355.06;4896029;29;19987;-53
2021/10/22 10:57:52;;;;;;;;;;;;;;;9.43;100.00;101343.47;4896218;29;19935;-54
2021/10/22 11:00:23;;;;;;;;;;;;;;;9.86;100.00;101343.81;4898440;29;19928;-54
2021/10/22 11:03:05;;;;;;;;;;;;;;;10.07;99.46;101354.06;4900379;29;20406;-55
2021/10/22 11:05:48;;;;;;;;;;;;;;;10.58;98.71;101335.47;4900245;29;19931;-56
2021/10/22 11:08:22;;;;;;;;;;;;;;;10.61;99.44;101343.22;4900588;29;19973;-44
2021/10/22 11:11:03;;;;;;;;;;;;;;;10.58;97.14;101349.50;4900004;29;19928;-47
2021/10/22 11:13:42;;;;;;;;;;;;;;;10.54;96.96;101352.38;4900079;29;19934;-44
2021/10/22 11:19:08;;;;;;;;;;;;;;;11.56;95.83;101355.16;4876544;29;20022;-45
2021/10/22 11:21:38;;;;;;;;;;;;;;;11.36;94.95;101350.22;4900430;29;19931;-47
2021/10/22 11:24:12;;;;;;;;;;;;;;;11.13;94.71;101350.69;4896770;29;19979;-47
2021/10/22 11:26:39;;;;;;;;;;;;;;;11.21;94.74;101359.91;4896510;29;19959;-47
2021/10/22 11:29:14;;;;;;;;;;;;;;;11.17;94.52;101351.34;4895484;29;19967;-47
2021/10/22 11:31:49;;;;;;;;;;;;;;;11.75;92.01;101354.88;4898161;29;19958;-49
2021/10/22 11:34:17;;;;;;;;;;;;;;;12.03;89.33;101339.16;4897417;29;19931;-50
2021/10/22 11:37:06;;;;;;;;;;;;;;;12.37;86.49;101348.38;4896978;29;20022;-48
2021/10/22 11:39:36;;;;;;;;;;;;;;;12.68;86.92;101335.81;4899695;29;19927;-57
2021/10/22 11:42:13;;;;;;;;;;;;;;;12.56;84.43;101336.63;4899822;29;19934;-57
2021/10/22 11:44:44;;;;;;;;;;;;;;;13.09;85.36;101355.09;4883255;29;19928;-48
2021/10/22 11:47:12;;;;;;;;;;;;;;;13.22;81.78;101347.19;4896470;29;19943;-46
2021/10/22 11:49:39;;;;;;;;;;;;;;;12.95;83.62;101356.03;4880499;29;19973;-48
2021/10/22 11:52:09;;;;;;;;;;;;;;;12.94;83.70;101355.19;4880403;29;19956;-48
2021/10/22 11:54:36;;;;;;;;;;;;;;;12.95;83.48;101353.41;4880934;29;19931;-45
2021/10/22 11:57:03;;;;;;;;;;;;;;;12.78;83.34;101357.16;4899253;29;19979;-47
2021/10/22 11:59:31;;;;;;;;;;;;;;;12.70;83.04;101377.94;4899582;29;19931;-46
2021/10/22 12:02:05;;;;;;;;;;;;;;;12.74;83.95;101369.72;4852486;29;19931;-55
2021/10/22 12:04:36;;;;;;;;;;;;;;;12.45;82.47;101361.91;4883201;29;19978;-57
2021/10/22 12:07:07;;;;;;;;;;;;;;;12.63;83.30;101361.66;4882684;29;19927;-54
2021/10/22 12:09:38;;;;;;;;;;;;;;;12.59;82.33;101376.00;4899136;29;19927;-57
2021/10/22 12:12:09;;;;;;;;;;;;;;;12.55;81.26;101372.72;4882410;29;19928;-45
2021/10/22 12:14:40;;;;;;;;;;;;;;;12.72;80.54;101373.41;4899350;29;20413;-46
2021/10/22 12:17:08;;;;;;;;;;;;;;;12.65;80.31;101367.66;4899041;29;19935;-48
2021/10/22 12:19:37;;;;;;;;;;;;;;;12.58;79.88;101371.66;4882412;29;19931;-44
2021/10/22 12:22:03;;;;;;;;;;;;;;;12.59;80.44;101383.91;4881093;29;19983;-45
2021/10/22 12:24:37;;;;;;;;;;;;;;;12.54;80.18;101380.72;4895551;29;19935;-45
2021/10/22 12:27:05;;;;;;;;;;;;;;;12.45;81.08;101387.47;4898990;29;19927;-46
2021/10/22 12:29:48;;;;;;;;;;;;;;;12.35;81.73;101397.72;4878322;29;20307;-44
2021/10/22 12:32:33;;;;;;;;;;;;;;;12.44;79.40;101398.94;4897076;29;19934;-48
2021/10/22 12:35:01;;;;;;;;;;;;;;;12.42;81.40;101398.19;4879972;29;19927;-48
2021/10/22 12:37:53;;;;;;;;;;;;;;;12.51;81.45;101403.72;4895873;29;20451;-44
2021/10/22 12:40:21;;;;;;;;;;;;;;;12.56;82.83;101406.06;4880384;29;20363;-45
2021/10/22 12:43:02;;;;;;;;;;;;;;;12.43;80.91;101403.34;4882006;29;19931;-46
2021/10/22 12:45:29;;;;;;;;;;;;;;;12.33;82.50;101410.19;4898731;29;19931;-47
2021/10/22 12:48:03;;;;;;;;;;;;;;;12.22;81.09;101412.66;4894476;29;20399;-43
2021/10/22 12:50:31;;;;;;;;;;;;;;;12.33;84.06;101405.75;4895309;29;20316;-45
2021/10/22 12:53:02;;;;;;;;;;;;;;;12.30;84.02;101411.22;4898743;29;19976;-46
2021/10/22 12:55:29;;;;;;;;;;;;;;;12.28;83.72;101410.47;4898687;29;19934;-50
2021/10/22 12:58:12;;;;;;;;;;;;;;;12.17;84.55;101415.56;4895765;29;20291;-46
2021/10/22 13:00:39;;;;;;;;;;;;;;;12.03;83.98;101412.97;4878209;29;19950;-45
2021/10/22 13:03:06;;;;;;;;;;;;;;;11.95;86.18;101416.91;4879211;29;19958;-47